Αρχική σελίδα
METAR-TAF:

METAR-TAF

Αεροδρόμια :

Tongatapu, Τόνγκα

γεωγραφικό πλάτος: 21-14S, γεωγραφικό μήκος: 175-09W, υψόμετρο: 38 μ

Παρών καιρός

Η αναφορά έγινε 20 λεπτά πριν, στις 00:00 UTC
Άνεμος 11 kt από Ν/NA
Θερμοκρασία 28°C
Υγρασία 66%
Πίεση 1011 hPa
Ορατότητα 10 χλμ και άνω
Λίγα νέφη σε ύψος 2000 πόδια, Σωρείτες καθέτου αναπτύξεως.

METAR: NFTF 120000Z 15011KT 9999 FEW020TCU 28/21 Q1011

Χρόνος: 14:20 (00:20 UTC)

Πρόγνωση Καιρού

Η αναφορά έγινε 1 ώρα και 8 λεπτά πριν, στις 23:12 UTC
Η πρόγνωση ισχύει από τις 12 στις 00 UTC έως τις 12 στις 24 UTC
Άνεμος 12 kt από Ν
Ορατότητα 10 χλμ και άνω
Λίγα νέφη σε ύψος 1800 πόδια

TAF: NFTF 112312Z 1200/1224 19012KT 9999 FEW018

Μετεωρολογικές αναφορές και προγνώσεις για περισσότερα από 4000 αεροδρόμια (δελτία METAR και TAF).

Οι διαθέσιμοι σταθμοί απεικονίζονται στο χάρτη με κίτρινες και κόκκινες κουκκίδες.

Μετακινήστε το ποντίκι πάνω από τις κουκκίδες για να δείτε το όνομα του σταθμού.

Στη συνέχεια, κάντε κλικ για να δείτε τις μετεωρολογικές αναφορές και τις προγνώσεις καιρού.

Για να αλλάξετε το χάρτη: κάντε κλικ στα πράσινα κουμπιά με τον μαύρο σταυρό για να ζουμάρετε, στο πράσινο κουμπί με την παύλα για να αφαιρέσετε το ζουμ ή στα πράσινα βέλη για να αντιπαραβάλλετε χάρτες.


METAR-TAF: